SBFZ/FOR METAR and TAF weather

Enter ICAO airport designator
Station Type Date Time Source
SBFZ METAR 2019/07/18 11:00 UTC NOAA

SBFZ 181100Z 13014KT 9999 FEW020 27/20 Q1016


Station Type Date Time Source
SBFZ Decoded METAR 2019/07/18 11:00 UTC NOAA

Fortaleza / pinto Martins , Brazil (SBFZ) 03-47S 038-32W 25M
Jul 18, 2019 - 07:00 AM EDT / 2019.07.18 1100 UTC
Wind: from the SE (130 degrees) at 16 MPH (14 KT):0
Visibility: greater than 7 mile(s):0
Sky conditions: mostly clear
Temperature: 80 F (27 C)
Dew Point: 68 F (20 C)
Relative Humidity: 65%
Pressure (altimeter): 30.00 in. Hg (1016 hPa)
ob: SBFZ 181100Z 13014KT 9999 FEW020 27/20 Q1016
cycle: 11

Station Type Date Time Source
SBFZ TAF 2019/07/18 12:57 UTC NOAA

TAF SBFZ 181000Z 1812/1912 12015KT 9999 SCT025 TX30/1817Z TN26/1906Z
BECMG 1821/1823 09010KT
RMK PEM

Example: see airport list